Pacific Princess — ZCDS3 — position and weather

sailwx.info

Track history (hours):
 
Tides and Currents Weather Stations Pressure Air Temp Water Temp Dewpoint Dewpoint Depression Visibility Wind Speed Wind Dir Waves Ship Positions

Pacific Princess (Bermuda)

Last reported at 2019-Jan-23 21:00 UTC. Time now 2019-Jan-24 07:19 UTC.
Position N 26°42' W 138°54'.

Length 180.5 m; beam 25.6 m; draft 6 m.

Type: Passenger vessel. MMSI: 310504000.

Wind from 090 at 20 knots

Barometer 1025.1 mb
Air temperature 20.0 ° C
Visibility: greater than 10.8 NM
Dewpoint 14.6 ° C
Water temperature 20.0 ° C

Date/timePositionNaut miles runAvg speedWind from/ knotsBaromVisibWave heightAir tempDewpointWater temp
2019-Jan-23 21:00N 26°42' W 138°54'29522.7 090 / 201025.110.8 20.014.620.0
2019-Jan-23 08:00N 23°48' W 134°30'38231.8 080 / 181028.610.8 18.511.220.0
2019-Jan-22 20:00N 29°00' W 130°24'43618.2 060 / 181030.710.8 18.511.220.0
2019-Jan-21 20:00N 31°30' W 122°30'14717.7 350 / 271025.510.8 17.0 9.419.0
2019-Jan-21 11:41N 33°07' W 120°20'618.5
2019-Jan-21 11:22N 33°12' W 120°15'1418.3
2019-Jan-21 10:36N 33°22' W 120°03'218.3
2019-Jan-21 10:31N 33°23' W 120°02'917.2
2019-Jan-21 10:00N 33°28' W 119°53'917.5
2019-Jan-21 09:31N 33°30' W 119°43'917.9
2019-Jan-21 09:00N 33°32' W 119°32'917.6
2019-Jan-21 08:31N 33°34' W 119°22'917.5
2019-Jan-21 08:00N 33°35' W 119°12'917.1
2019-Jan-21 07:31N 33°37' W 119°02'917.2
2019-Jan-21 07:00N 33°37' W 118°51'817.0
2019-Jan-21 06:31N 33°37' W 118°41'917.5
2019-Jan-21 06:00N 33°37' W 118°31'815.4
2019-Jan-21 05:30N 33°38' W 118°21'611.7
2019-Jan-21 05:00N 33°39' W 118°15'5 9.0
2019-Jan-21 04:30N 33°43' W 118°16'2 3.2
2019-Jan-21 03:56N 33°45' W 118°17'0 0.0
2019-Jan-21 03:26N 33°45' W 118°17'0 0.0
2019-Jan-21 02:44N 33°45' W 118°17'0 0.0
2019-Jan-21 02:26N 33°45' W 118°17'0 0.0
2019-Jan-21 01:56N 33°45' W 118°17'0 0.0
2019-Jan-21 01:29N 33°45' W 118°17'0 0.0
2019-Jan-21 00:47N 33°45' W 118°17'0 0.0
2019-Jan-21 00:14N 33°45' W 118°17'0 0.0
2019-Jan-20 23:44N 33°45' W 118°17'0 0.0
2019-Jan-20 23:29N 33°45' W 118°17'0 0.0
2019-Jan-20 22:56N 33°45' W 118°17'0 0.0
2019-Jan-20 22:29N 33°45' W 118°17'0 0.0
2019-Jan-20 21:56N 33°45' W 118°17'0 0.0
2019-Jan-20 21:29N 33°45' W 118°17'0 0.0
2019-Jan-20 20:59N 33°45' W 118°17'0 0.0
2019-Jan-20 20:29N 33°45' W 118°17'0 0.0
2019-Jan-20 19:59N 33°45' W 118°17'0 0.0
2019-Jan-20 19:20N 33°45' W 118°17'0 0.0
2019-Jan-20 18:50N 33°45' W 118°17'0 0.0
2019-Jan-20 18:29N 33°45' W 118°17'0 0.0
2019-Jan-20 17:59N 33°45' W 118°17'0 0.0
2019-Jan-20 17:26N 33°45' W 118°17'0 0.0
2019-Jan-20 16:59N 33°45' W 118°17'0 0.0
2019-Jan-20 16:26N 33°45' W 118°17'0 0.0
2019-Jan-20 15:59N 33°45' W 118°17'0 1.0
2019-Jan-20 15:31N 33°45' W 118°16'2 3.7
2019-Jan-20 15:00N 33°43' W 118°16'4 7.3
2019-Jan-20 14:31N 33°41' W 118°13'611.6
2019-Jan-20 14:01N 33°36' W 118°10'612.5
2019-Jan-20 13:31N 33°30' W 118°07'612.1
2019-Jan-20 13:00N 33°24' W 118°05'714.6
2019-Jan-20 12:31N 33°17' W 118°02'815.3
2019-Jan-20 12:00N 33°10' W 117°58'917.1
2019-Jan-20 11:30N 33°02' W 117°54'816.8
2019-Jan-20 11:00N 32°54' W 117°51'816.5
2019-Jan-20 10:31N 32°47' W 117°46'816.7
2019-Jan-20 10:00N 32°39' W 117°42'816.5
2019-Jan-20 09:31N 32°32' W 117°39'816.3
2019-Jan-20 09:01N 32°24' W 117°36'815.7
2019-Jan-20 08:30N 32°16' W 117°34'815.5
2019-Jan-20 08:00N 32°09' W 117°32'816.1
2019-Jan-20 07:30N 32°01' W 117°29'816.2
2019-Jan-20 07:00N 31°53' W 117°26'2115.6
2019-Jan-20 07:00N 31°54' W 117°24'   010 / 181018.510.8 19.210.619.0
2019-Jan-14 10:00N 13°24' W 090°48'5613.9 070 / 181012.510.8 26.019.928.0
2019-Jan-14 06:00N 13°06' W 089°54'   320 / 51013.710.8 27.224.029.0
Track history (hours):
 
Tides and Currents Weather Stations Pressure Air Temp Water Temp Dewpoint Dewpoint Depression Visibility Wind Speed Wind Dir Waves Ship Positions

Pacific Princess (Bermuda)

Last reported at 2019-Jan-23 21:00 UTC. Time now 2019-Jan-24 07:19 UTC.
Position N 26°42' W 138°54'.

Length 180.5 m; beam 25.6 m; draft 6 m.

Type: Passenger vessel. MMSI: 310504000.

Wind from 090 at 20 knots

Barometer 1025.1 mb
Air temperature 20.0 ° C
Visibility: greater than 10.8 NM
Dewpoint 14.6 ° C
Water temperature 20.0 ° C

Date/timePositionNaut miles runAvg speedWind from/ knotsBaromVisibWave heightAir tempDewpointWater temp
2019-Jan-23 21:00N 26°42' W 138°54'29522.7 090 / 201025.110.8 20.014.620.0
2019-Jan-23 08:00N 23°48' W 134°30'38231.8 080 / 181028.610.8 18.511.220.0
2019-Jan-22 20:00N 29°00' W 130°24'43618.2 060 / 181030.710.8 18.511.220.0
2019-Jan-21 20:00N 31°30' W 122°30'14717.7 350 / 271025.510.8 17.0 9.419.0
2019-Jan-21 11:41N 33°07' W 120°20'618.5
2019-Jan-21 11:22N 33°12' W 120°15'1418.3
2019-Jan-21 10:36N 33°22' W 120°03'218.3
2019-Jan-21 10:31N 33°23' W 120°02'917.2
2019-Jan-21 10:00N 33°28' W 119°53'917.5
2019-Jan-21 09:31N 33°30' W 119°43'917.9
2019-Jan-21 09:00N 33°32' W 119°32'917.6
2019-Jan-21 08:31N 33°34' W 119°22'917.5
2019-Jan-21 08:00N 33°35' W 119°12'917.1
2019-Jan-21 07:31N 33°37' W 119°02'917.2
2019-Jan-21 07:00N 33°37' W 118°51'817.0
2019-Jan-21 06:31N 33°37' W 118°41'917.5
2019-Jan-21 06:00N 33°37' W 118°31'815.4
2019-Jan-21 05:30N 33°38' W 118°21'611.7
2019-Jan-21 05:00N 33°39' W 118°15'5 9.0
2019-Jan-21 04:30N 33°43' W 118°16'2 3.2
2019-Jan-21 03:56N 33°45' W 118°17'0 0.0
2019-Jan-21 03:26N 33°45' W 118°17'0 0.0
2019-Jan-21 02:44N 33°45' W 118°17'0 0.0
2019-Jan-21 02:26N 33°45' W 118°17'0 0.0
2019-Jan-21 01:56N 33°45' W 118°17'0 0.0
2019-Jan-21 01:29N 33°45' W 118°17'0 0.0
2019-Jan-21 00:47N 33°45' W 118°17'0 0.0
2019-Jan-21 00:14N 33°45' W 118°17'0 0.0
2019-Jan-20 23:44N 33°45' W 118°17'0 0.0
2019-Jan-20 23:29N 33°45' W 118°17'0 0.0
2019-Jan-20 22:56N 33°45' W 118°17'0 0.0
2019-Jan-20 22:29N 33°45' W 118°17'0 0.0
2019-Jan-20 21:56N 33°45' W 118°17'0 0.0
2019-Jan-20 21:29N 33°45' W 118°17'0 0.0
2019-Jan-20 20:59N 33°45' W 118°17'0 0.0
2019-Jan-20 20:29N 33°45' W 118°17'0 0.0
2019-Jan-20 19:59N 33°45' W 118°17'0 0.0
2019-Jan-20 19:20N 33°45' W 118°17'0 0.0
2019-Jan-20 18:50N 33°45' W 118°17'0 0.0
2019-Jan-20 18:29N 33°45' W 118°17'0 0.0
2019-Jan-20 17:59N 33°45' W 118°17'0 0.0
2019-Jan-20 17:26N 33°45' W 118°17'0 0.0
2019-Jan-20 16:59N 33°45' W 118°17'0 0.0
2019-Jan-20 16:26N 33°45' W 118°17'0 0.0
2019-Jan-20 15:59N 33°45' W 118°17'0 1.0
2019-Jan-20 15:31N 33°45' W 118°16'2 3.7
2019-Jan-20 15:00N 33°43' W 118°16'4 7.3
2019-Jan-20 14:31N 33°41' W 118°13'611.6
2019-Jan-20 14:01N 33°36' W 118°10'612.5
2019-Jan-20 13:31N 33°30' W 118°07'612.1
2019-Jan-20 13:00N 33°24' W 118°05'714.6
2019-Jan-20 12:31N 33°17' W 118°02'815.3
2019-Jan-20 12:00N 33°10' W 117°58'917.1
2019-Jan-20 11:30N 33°02' W 117°54'816.8
2019-Jan-20 11:00N 32°54' W 117°51'816.5
2019-Jan-20 10:31N 32°47' W 117°46'816.7
2019-Jan-20 10:00N 32°39' W 117°42'816.5
2019-Jan-20 09:31N 32°32' W 117°39'816.3
2019-Jan-20 09:01N 32°24' W 117°36'815.7
2019-Jan-20 08:30N 32°16' W 117°34'815.5
2019-Jan-20 08:00N 32°09' W 117°32'816.1
2019-Jan-20 07:30N 32°01' W 117°29'816.2
2019-Jan-20 07:00N 31°53' W 117°26'2115.6
2019-Jan-20 07:00N 31°54' W 117°24'   010 / 181018.510.8 19.210.619.0
2019-Jan-14 10:00N 13°24' W 090°48'5613.9 070 / 181012.510.8 26.019.928.0
2019-Jan-14 06:00N 13°06' W 089°54'   320 / 51013.710.8 27.224.029.0

Dump ship's entire track history